createdAt,value
2019-03-06T00:00:51.035Z,8.90
2019-03-06T00:03:17.851Z,10.17
2019-03-06T00:05:44.387Z,9.20
2019-03-06T00:08:10.987Z,9.30
2019-03-06T00:10:37.594Z,10.60
2019-03-06T00:13:04.542Z,10.80
2019-03-06T00:15:31.068Z,10.63
2019-03-06T00:17:57.839Z,11.40
2019-03-06T00:20:24.635Z,11.70
2019-03-06T00:22:51.267Z,12.23
2019-03-06T00:25:17.939Z,11.97
2019-03-06T00:27:46.212Z,11.60
2019-03-06T00:30:17.462Z,11.97
2019-03-06T00:32:44.531Z,12.47
2019-03-06T00:35:20.295Z,13.07
2019-03-06T00:37:46.824Z,12.83
2019-03-06T00:40:15.250Z,13.47
2019-03-06T00:42:43.719Z,12.97
2019-03-06T00:45:12.199Z,13.30
2019-03-06T00:47:40.446Z,13.63
2019-03-06T00:50:07.281Z,12.83
2019-03-06T00:52:33.955Z,12.40
2019-03-06T00:55:00.468Z,12.80
2019-03-06T00:57:27.270Z,12.70
2019-03-06T00:59:53.831Z,13.07
2019-03-06T01:02:20.683Z,13.27
2019-03-06T01:04:47.224Z,13.50
2019-03-06T01:07:14.060Z,14.07
2019-03-06T01:09:40.625Z,14.43
2019-03-06T01:12:07.471Z,13.43
2019-03-06T01:14:34.031Z,15.40
2019-03-06T01:17:01.346Z,14.20
2019-03-06T01:19:27.967Z,12.90
2019-03-06T01:21:54.488Z,14.70
2019-03-06T01:24:21.130Z,14.67
2019-03-06T01:26:48.043Z,14.77
2019-03-06T01:29:14.603Z,15.60
2019-03-06T01:31:42.391Z,15.50
2019-03-06T01:34:10.858Z,14.40
2019-03-06T01:36:39.339Z,13.23
2019-03-06T01:39:08.103Z,14.93
2019-03-06T01:41:36.551Z,15.60
2019-03-06T01:44:05.004Z,15.47
2019-03-06T01:46:31.510Z,15.50
2019-03-06T01:48:58.022Z,14.50
2019-03-06T01:51:24.567Z,14.57
2019-03-06T01:53:51.423Z,15.77
2019-03-06T01:56:18.044Z,16.10
2019-03-06T01:58:44.603Z,14.93
2019-03-06T02:01:11.028Z,17.17
2019-03-06T02:03:38.945Z,16.13
2019-03-06T02:06:05.793Z,16.57
2019-03-06T02:08:32.560Z,16.50
2019-03-06T02:10:59.072Z,15.33
2019-03-06T02:13:25.680Z,14.87
2019-03-06T02:15:52.235Z,16.53
2019-03-06T02:18:18.938Z,16.83
2019-03-06T02:20:47.335Z,16.00
2019-03-06T02:23:14.147Z,17.50
2019-03-06T02:25:40.811Z,16.10
2019-03-06T02:28:07.332Z,15.20
2019-03-06T02:30:34.094Z,16.33
2019-03-06T02:33:00.512Z,17.53
2019-03-06T02:35:27.879Z,18.30
2019-03-06T02:37:54.729Z,16.87
2019-03-06T02:40:21.335Z,17.73
2019-03-06T02:42:48.009Z,18.03
2019-03-06T02:45:16.128Z,16.63
2019-03-06T02:47:42.838Z,16.47
2019-03-06T02:50:13.984Z,17.90
2019-03-06T02:52:40.742Z,17.33
2019-03-06T02:55:09.114Z,16.00
2019-03-06T02:57:36.894Z,17.13
2019-03-06T03:00:25.954Z,16.93
2019-03-06T03:03:13.014Z,16.30
2019-03-06T03:05:43.236Z,17.10
2019-03-06T03:08:09.909Z,16.80
2019-03-06T03:10:36.412Z,16.73
2019-03-06T03:13:03.135Z,16.30
2019-03-06T03:15:29.706Z,16.50
2019-03-06T03:17:56.207Z,16.90
2019-03-06T03:20:22.795Z,17.40
2019-03-06T03:22:49.398Z,17.33
2019-03-06T03:25:15.908Z,17.30
2019-03-06T03:27:42.661Z,18.33
2019-03-06T03:30:12.129Z,18.67
2019-03-06T03:32:38.733Z,16.73
2019-03-06T03:35:07.220Z,17.17
2019-03-06T03:37:33.825Z,18.43
2019-03-06T03:40:05.349Z,17.57
2019-03-06T03:42:31.996Z,16.60
2019-03-06T03:44:58.533Z,18.70
2019-03-06T03:47:25.054Z,17.67
2019-03-06T03:49:52.508Z,18.07
2019-03-06T03:52:19.246Z,18.30
2019-03-06T03:54:45.801Z,18.87
2019-03-06T03:57:12.758Z,18.93
2019-03-06T03:59:39.408Z,19.03
2019-03-06T04:02:06.327Z,20.50
2019-03-06T04:04:33.046Z,22.00
2019-03-06T04:06:59.794Z,20.47
2019-03-06T04:09:26.699Z,22.40
2019-03-06T04:11:53.634Z,23.70
2019-03-06T04:14:20.191Z,22.67
2019-03-06T04:16:46.696Z,22.67
2019-03-06T04:19:13.267Z,23.17
2019-03-06T04:21:39.899Z,23.23
2019-03-06T04:24:06.562Z,22.30
2019-03-06T04:26:33.567Z,22.93
2019-03-06T04:29:00.142Z,21.87
2019-03-06T04:31:27.392Z,22.60
2019-03-06T04:33:54.068Z,23.00
2019-03-06T04:36:21.277Z,22.47
2019-03-06T04:38:48.032Z,22.37
2019-03-06T04:41:14.638Z,21.60
2019-03-06T04:43:41.417Z,21.97
2019-03-06T04:46:08.015Z,21.57
2019-03-06T04:48:34.622Z,23.30
2019-03-06T04:51:01.266Z,21.97
2019-03-06T04:53:28.178Z,21.90
2019-03-06T04:55:55.622Z,21.97
2019-03-06T04:58:23.334Z,21.47
2019-03-06T05:00:50.024Z,22.00
2019-03-06T05:03:18.183Z,22.50
2019-03-06T05:05:45.226Z,21.13
2019-03-06T05:08:11.941Z,22.90
2019-03-06T05:10:38.471Z,22.27
2019-03-06T05:13:04.987Z,22.47
2019-03-06T05:15:32.536Z,22.47
2019-03-06T05:18:01.563Z,22.10
2019-03-06T05:20:29.515Z,24.40
2019-03-06T05:22:56.370Z,22.43
2019-03-06T05:25:22.995Z,24.37
2019-03-06T05:27:49.603Z,23.23
2019-03-06T05:30:19.556Z,24.00
2019-03-06T05:32:52.705Z,23.67
2019-03-06T05:35:44.855Z,24.00
2019-03-06T05:38:15.183Z,24.37
2019-03-06T05:40:41.715Z,23.90
2019-03-06T05:43:08.226Z,23.20
2019-03-06T05:45:34.862Z,23.87
2019-03-06T05:48:01.664Z,25.23
2019-03-06T05:50:28.203Z,25.00
2019-03-06T05:52:54.751Z,24.30
2019-03-06T05:55:21.282Z,21.97
2019-03-06T05:57:47.900Z,22.60
2019-03-06T06:00:18.046Z,23.83
2019-03-06T06:02:44.759Z,23.77
2019-03-06T06:05:12.517Z,22.10
2019-03-06T06:07:39.032Z,23.20
2019-03-06T06:10:13.871Z,21.60
2019-03-06T06:12:40.379Z,23.80
2019-03-06T06:15:10.035Z,25.27
2019-03-06T06:17:36.575Z,22.27
2019-03-06T06:20:06.106Z,22.27
2019-03-06T06:22:34.631Z,22.73
2019-03-06T06:25:01.173Z,21.60
2019-03-06T06:27:27.884Z,21.30
2019-03-06T06:29:54.526Z,21.67
2019-03-06T06:32:21.144Z,21.40
2019-03-06T06:34:47.815Z,19.20
2019-03-06T06:37:14.323Z,19.77
2019-03-06T06:39:40.967Z,20.47
2019-03-06T06:42:07.775Z,21.27
2019-03-06T06:44:34.345Z,20.43
2019-03-06T06:47:00.948Z,19.50
2019-03-06T06:49:27.463Z,18.27
2019-03-06T06:52:07.053Z,18.97
2019-03-06T06:54:37.669Z,19.40
2019-03-06T06:57:17.247Z,18.73
2019-03-06T06:59:59.653Z,17.90
2019-03-06T07:02:40.858Z,19.20
2019-03-06T07:05:12.814Z,18.23
2019-03-06T07:07:53.111Z,18.80
2019-03-06T07:10:40.018Z,19.10
2019-03-06T07:13:11.503Z,19.50
2019-03-06T07:15:56.594Z,20.20
2019-03-06T07:18:43.541Z,19.83
2019-03-06T07:21:14.884Z,18.70
2019-03-06T07:23:52.050Z,18.23
2019-03-06T07:26:32.851Z,18.20
2019-03-06T07:29:01.424Z,19.77
2019-03-06T07:31:46.594Z,17.73
2019-03-06T07:34:15.010Z,19.13
2019-03-06T07:36:44.547Z,18.43
2019-03-06T07:39:15.875Z,17.43
2019-03-06T07:41:44.520Z,18.60
2019-03-06T07:44:12.971Z,18.57
2019-03-06T07:46:53.249Z,18.60
2019-03-06T07:49:45.145Z,17.77
2019-03-06T07:52:08.942Z,18.03
2019-03-06T07:54:37.455Z,18.90
2019-03-06T07:57:12.132Z,18.23
2019-03-06T07:59:38.934Z,18.07
2019-03-06T08:02:09.071Z,17.57
2019-03-06T08:04:35.586Z,17.30
2019-03-06T08:07:11.046Z,18.50
2019-03-06T08:09:37.767Z,19.07
2019-03-06T08:12:25.220Z,16.90
2019-03-06T08:15:00.346Z,17.57
2019-03-06T08:17:45.727Z,18.23
2019-03-06T08:20:29.439Z,16.73
2019-03-06T08:22:57.973Z,17.87
2019-03-06T08:25:43.063Z,17.63
2019-03-06T08:28:10.724Z,17.13
2019-03-06T08:30:43.349Z,17.53
2019-03-06T08:33:17.960Z,18.43
2019-03-06T08:35:39.195Z,17.47
2019-03-06T08:38:05.823Z,16.87
2019-03-06T08:40:32.456Z,16.90
2019-03-06T08:42:59.094Z,17.53
2019-03-06T08:45:27.643Z,16.97
2019-03-06T08:48:08.311Z,17.07
2019-03-06T08:50:48.869Z,17.00
2019-03-06T08:53:17.352Z,16.60
2019-03-06T08:55:57.939Z,16.80
2019-03-06T08:58:41.753Z,16.80
2019-03-06T09:01:33.383Z,16.30
2019-03-06T09:04:10.098Z,17.13
2019-03-06T09:06:45.310Z,16.47
2019-03-06T09:09:20.551Z,16.93
2019-03-06T09:11:51.803Z,16.80
2019-03-06T09:14:37.183Z,20.20
2019-03-06T09:17:05.722Z,21.00
2019-03-06T09:19:34.340Z,21.73
2019-03-06T09:22:05.660Z,23.40
2019-03-06T09:24:49.191Z,21.73
2019-03-06T09:27:26.439Z,20.97
2019-03-06T09:30:00.799Z,18.80
2019-03-06T09:32:34.781Z,17.37
2019-03-06T09:35:06.048Z,17.73
2019-03-06T09:37:34.759Z,16.23
2019-03-06T09:40:03.212Z,16.60
2019-03-06T09:42:34.132Z,16.60
2019-03-06T09:45:02.681Z,15.97
2019-03-06T09:47:34.013Z,16.00
2019-03-06T09:50:08.219Z,15.53
2019-03-06T09:52:45.991Z,15.53
2019-03-06T09:55:14.432Z,14.90
2019-03-06T09:57:45.815Z,15.30
2019-03-06T10:00:29.446Z,14.23
2019-03-06T10:02:57.872Z,14.20
2019-03-06T10:05:35.332Z,13.57
2019-03-06T10:08:19.663Z,12.60
2019-03-06T10:11:00.745Z,13.93
2019-03-06T10:13:29.269Z,13.00
2019-03-06T10:16:09.872Z,12.90
2019-03-06T10:18:38.399Z,12.90
2019-03-06T10:21:04.946Z,12.43
2019-03-06T10:23:31.558Z,12.87
2019-03-06T10:25:58.096Z,11.80
2019-03-06T10:28:27.892Z,12.23
2019-03-06T10:31:02.158Z,12.23
2019-03-06T10:33:21.765Z,12.67
2019-03-06T10:35:48.495Z,10.80
2019-03-06T10:38:16.815Z,11.47
2019-03-06T10:40:43.580Z,11.90
2019-03-06T10:43:10.093Z,12.40
2019-03-06T10:45:41.852Z,13.20
2019-03-06T10:48:05.043Z,12.20
2019-03-06T10:50:31.736Z,11.77
2019-03-06T10:52:58.296Z,12.10
2019-03-06T10:55:24.842Z,11.63
2019-03-06T10:57:51.688Z,11.60
2019-03-06T11:00:25.880Z,11.47
2019-03-06T11:02:52.688Z,11.70
2019-03-06T11:05:21.538Z,11.20
2019-03-06T11:07:48.239Z,11.03
2019-03-06T11:10:23.517Z,11.30
2019-03-06T11:12:44.688Z,11.20
2019-03-06T11:15:15.166Z,12.83
2019-03-06T11:17:42.075Z,10.67
2019-03-06T11:20:15.742Z,10.20
2019-03-06T11:22:42.339Z,11.00
2019-03-06T11:25:12.587Z,10.70
2019-03-06T11:27:39.307Z,11.20
2019-03-06T11:30:10.547Z,10.63
2019-03-06T11:32:37.354Z,10.50
2019-03-06T11:35:08.647Z,10.50
2019-03-06T11:37:35.261Z,10.87
2019-03-06T11:40:03.203Z,11.00
2019-03-06T11:42:29.712Z,12.00
2019-03-06T11:44:56.251Z,11.40
2019-03-06T11:47:22.776Z,10.83
2019-03-06T11:49:49.293Z,10.53
2019-03-06T11:52:16.026Z,11.37
2019-03-06T11:54:42.566Z,11.07
2019-03-06T11:57:09.517Z,10.63
2019-03-06T11:59:36.234Z,10.40
2019-03-06T12:02:03.486Z,10.40
2019-03-06T12:04:29.991Z,10.47
2019-03-06T12:06:56.626Z,9.10
2019-03-06T12:09:25.456Z,10.30
2019-03-06T12:11:52.086Z,9.17
2019-03-06T12:14:18.724Z,8.97
2019-03-06T12:16:45.501Z,9.20
2019-03-06T12:19:12.120Z,10.10
2019-03-06T12:21:38.884Z,9.43
2019-03-06T12:24:06.904Z,8.90
2019-03-06T12:26:35.265Z,9.37
2019-03-06T12:29:01.866Z,8.23
2019-03-06T12:31:28.747Z,9.33
2019-03-06T12:33:55.253Z,8.30
2019-03-06T12:36:21.992Z,9.50
2019-03-06T12:38:49.619Z,8.87
2019-03-06T12:41:16.547Z,8.60
2019-03-06T12:43:44.647Z,8.17
2019-03-06T12:46:22.714Z,9.37
2019-03-06T12:48:44.156Z,9.30
2019-03-06T12:51:10.682Z,10.30
2019-03-06T12:53:37.311Z,10.23
2019-03-06T12:56:04.051Z,9.67
2019-03-06T12:58:30.671Z,10.30
2019-03-06T13:00:57.211Z,9.97
2019-03-06T13:03:23.736Z,10.57
2019-03-06T13:05:50.282Z,10.07
2019-03-06T13:08:19.932Z,9.80
2019-03-06T13:10:45.027Z,9.57
2019-03-06T13:13:12.063Z,10.33
2019-03-06T13:15:39.519Z,10.20
2019-03-06T13:18:06.166Z,10.53
2019-03-06T13:20:32.772Z,10.03
2019-03-06T13:22:59.935Z,10.27
2019-03-06T13:25:26.723Z,10.73
2019-03-06T13:27:55.880Z,9.93
2019-03-06T13:30:23.806Z,9.50
2019-03-06T13:33:01.441Z,10.20
2019-03-06T13:35:29.935Z,10.20
2019-03-06T13:37:56.483Z,10.00
2019-03-06T13:40:22.999Z,10.33
2019-03-06T13:42:49.542Z,10.00
2019-03-06T13:45:17.163Z,10.33
2019-03-06T13:47:43.707Z,10.63
2019-03-06T13:50:11.677Z,9.90
2019-03-06T13:52:38.547Z,9.80
2019-03-06T13:55:10.172Z,9.43
2019-03-06T13:57:36.812Z,9.60
2019-03-06T14:00:08.224Z,9.50
2019-03-06T14:02:35.079Z,10.13
2019-03-06T14:05:04.778Z,10.17
2019-03-06T14:07:31.524Z,9.83
2019-03-06T14:09:58.324Z,9.50
2019-03-06T14:12:24.963Z,9.60
2019-03-06T14:14:51.484Z,10.23
2019-03-06T14:17:18.049Z,9.57
2019-03-06T14:19:44.773Z,10.53
2019-03-06T14:22:11.511Z,10.40
2019-03-06T14:24:38.029Z,9.93
2019-03-06T14:27:06.366Z,9.60
2019-03-06T14:29:33.077Z,10.47
2019-03-06T14:31:59.770Z,10.20
2019-03-06T14:34:26.683Z,10.43
2019-03-06T14:36:53.735Z,10.43
2019-03-06T14:39:22.844Z,10.17
2019-03-06T14:41:49.365Z,10.90
2019-03-06T14:44:16.012Z,9.97
2019-03-06T14:46:42.738Z,11.00
2019-03-06T14:49:09.401Z,10.53
2019-03-06T14:51:35.908Z,10.10
2019-03-06T14:54:03.375Z,10.40
2019-03-06T14:56:31.575Z,9.53
2019-03-06T14:58:58.111Z,10.00
2019-03-06T15:01:24.623Z,9.67
2019-03-06T15:03:51.279Z,10.73
2019-03-06T15:06:17.818Z,11.00
2019-03-06T15:08:44.461Z,10.20
2019-03-06T15:11:11.980Z,9.60
2019-03-06T15:13:38.831Z,9.70
2019-03-06T15:16:05.856Z,10.53
2019-03-06T15:18:32.596Z,9.63
2019-03-06T15:20:59.213Z,10.20
2019-03-06T15:23:26.374Z,9.50
2019-03-06T15:25:53.995Z,9.93
2019-03-06T15:28:20.647Z,9.80
2019-03-06T15:30:47.260Z,10.17
2019-03-06T15:33:14.115Z,9.27
2019-03-06T15:35:40.723Z,8.93
2019-03-06T15:38:07.671Z,9.37
2019-03-06T15:40:36.714Z,8.90
2019-03-06T15:43:03.564Z,9.87
2019-03-06T15:45:33.071Z,9.67
2019-03-06T15:48:00.132Z,8.87
2019-03-06T15:50:27.347Z,8.97
2019-03-06T15:52:55.709Z,9.80
2019-03-06T15:55:24.240Z,9.80
2019-03-06T15:57:51.108Z,9.17
2019-03-06T16:00:45.517Z,10.20
2019-03-06T16:03:08.355Z,10.20
2019-03-06T16:05:35.371Z,10.87
2019-03-06T16:08:02.423Z,10.20
2019-03-06T16:10:30.729Z,9.97
2019-03-06T16:12:57.688Z,10.33
2019-03-06T16:15:26.422Z,10.13
2019-03-06T16:17:54.685Z,9.90
2019-03-06T16:20:22.290Z,10.70
2019-03-06T16:22:49.251Z,10.93
2019-03-06T16:25:16.163Z,10.77
2019-03-06T16:27:43.352Z,11.10
2019-03-06T16:30:13.479Z,11.40
2019-03-06T16:32:39.991Z,11.07
2019-03-06T16:35:07.155Z,10.77
2019-03-06T16:37:33.715Z,10.00
2019-03-06T16:40:00.705Z,10.47
2019-03-06T16:42:27.472Z,10.93
2019-03-06T16:44:54.071Z,10.17
2019-03-06T16:47:20.722Z,10.27
2019-03-06T16:49:48.233Z,9.90
2019-03-06T16:52:14.899Z,10.17
2019-03-06T16:54:41.751Z,10.00
2019-03-06T16:57:08.324Z,10.90
2019-03-06T16:59:34.913Z,9.53
2019-03-06T17:02:01.571Z,10.13
2019-03-06T17:04:28.498Z,9.10
2019-03-06T17:06:55.027Z,9.70
2019-03-06T17:09:21.779Z,9.70
2019-03-06T17:11:48.451Z,9.03
2019-03-06T17:14:14.973Z,10.43
2019-03-06T17:16:41.640Z,8.90
2019-03-06T17:19:08.275Z,9.57
2019-03-06T17:21:35.346Z,9.97
2019-03-06T17:24:01.871Z,9.13
2019-03-06T17:26:28.585Z,9.00
2019-03-06T17:28:55.103Z,9.40
2019-03-06T17:31:21.762Z,10.07
2019-03-06T17:33:48.386Z,10.23
2019-03-06T17:36:15.048Z,10.27
2019-03-06T17:38:41.602Z,9.33
2019-03-06T17:41:08.642Z,9.50
2019-03-06T17:43:35.304Z,9.90
2019-03-06T17:46:02.327Z,10.10
2019-03-06T17:48:29.760Z,9.97
2019-03-06T17:50:56.320Z,9.33
2019-03-06T17:53:22.895Z,9.03
2019-03-06T17:55:49.534Z,9.27
2019-03-06T17:58:16.600Z,10.20
2019-03-06T18:00:54.304Z,10.20
2019-03-06T18:03:22.862Z,9.60
2019-03-06T18:05:49.587Z,9.17
2019-03-06T18:08:16.135Z,9.63
2019-03-06T18:10:42.892Z,10.57
2019-03-06T18:13:10.410Z,10.27
2019-03-06T18:15:37.067Z,10.17
2019-03-06T18:18:03.580Z,9.77
2019-03-06T18:20:30.142Z,9.87
2019-03-06T18:22:56.755Z,10.27
2019-03-06T18:25:24.214Z,9.80
2019-03-06T18:27:50.762Z,9.93
2019-03-06T18:30:18.526Z,10.67
2019-03-06T18:32:45.194Z,10.20
2019-03-06T18:35:14.211Z,10.13
2019-03-06T18:37:40.938Z,9.60
2019-03-06T18:40:10.904Z,9.60
2019-03-06T18:42:37.567Z,9.80
2019-03-06T18:45:10.003Z,10.27
2019-03-06T18:47:36.873Z,10.20
2019-03-06T18:50:06.586Z,11.00
2019-03-06T18:52:33.139Z,11.07
2019-03-06T18:55:01.369Z,11.53
2019-03-06T18:57:28.012Z,11.67
2019-03-06T18:59:54.531Z,12.40
2019-03-06T19:02:21.088Z,12.20
2019-03-06T19:04:47.797Z,11.17
2019-03-06T19:07:14.463Z,11.37
2019-03-06T19:09:41.025Z,12.83
2019-03-06T19:12:07.559Z,12.50
2019-03-06T19:14:34.134Z,12.90
2019-03-06T19:17:00.741Z,12.80
2019-03-06T19:19:27.281Z,11.90
2019-03-06T19:21:53.903Z,12.53
2019-03-06T19:24:20.668Z,12.20
2019-03-06T19:26:47.350Z,12.97
2019-03-06T19:29:13.901Z,12.70
2019-03-06T19:31:40.398Z,12.00
2019-03-06T19:34:06.897Z,13.40
2019-03-06T19:36:33.495Z,13.00
2019-03-06T19:39:00.006Z,12.83
2019-03-06T19:41:26.562Z,13.57
2019-03-06T19:43:53.283Z,14.53
2019-03-06T19:46:19.851Z,12.53
2019-03-06T19:48:46.373Z,13.10
2019-03-06T19:51:12.938Z,13.30
2019-03-06T19:53:39.551Z,13.00
2019-03-06T19:56:06.314Z,14.50
2019-03-06T19:58:32.943Z,13.80
2019-03-06T20:00:59.605Z,13.90
2019-03-06T20:03:26.447Z,13.73
2019-03-06T20:05:53.307Z,13.20
2019-03-06T20:08:19.926Z,13.63
2019-03-06T20:10:46.595Z,13.20
2019-03-06T20:13:13.191Z,13.83
2019-03-06T20:15:40.663Z,13.30
2019-03-06T20:18:07.374Z,13.77
2019-03-06T20:20:34.175Z,13.47
2019-03-06T20:23:00.995Z,12.80
2019-03-06T20:25:27.859Z,14.70
2019-03-06T20:27:54.462Z,13.87
2019-03-06T20:30:25.420Z,12.57
2019-03-06T20:32:52.489Z,13.93
2019-03-06T20:35:20.940Z,12.80
2019-03-06T20:37:48.191Z,13.30
2019-03-06T20:40:15.179Z,13.13
2019-03-06T20:42:43.404Z,13.37
2019-03-06T20:45:12.109Z,13.23
2019-03-06T20:47:38.867Z,13.20
2019-03-06T20:50:10.482Z,13.23
2019-03-06T20:52:37.284Z,13.07
2019-03-06T20:55:07.051Z,12.80
2019-03-06T20:57:34.300Z,12.97
2019-03-06T21:00:00.832Z,13.13
2019-03-06T21:02:27.383Z,13.17
2019-03-06T21:04:54.467Z,12.97
2019-03-06T21:07:21.004Z,12.40
2019-03-06T21:09:47.764Z,13.40
2019-03-06T21:12:14.297Z,12.67
2019-03-06T21:14:40.858Z,12.40
2019-03-06T21:17:07.525Z,12.90
2019-03-06T21:19:34.489Z,13.60
2019-03-06T21:22:03.081Z,12.70
2019-03-06T21:24:29.771Z,12.70
2019-03-06T21:26:56.391Z,12.63
2019-03-06T21:29:22.955Z,12.30
2019-03-06T21:31:49.615Z,12.77
2019-03-06T21:34:16.132Z,13.57
2019-03-06T21:36:42.787Z,12.33
2019-03-06T21:39:22.748Z,12.57
2019-03-06T21:41:50.112Z,13.40
2019-03-06T21:44:16.783Z,12.07
2019-03-06T21:46:43.295Z,12.30
2019-03-06T21:49:10.367Z,13.50
2019-03-06T21:51:37.064Z,12.70
2019-03-06T21:54:03.756Z,12.53
2019-03-06T21:56:30.395Z,12.03
2019-03-06T21:58:57.308Z,13.07
2019-03-06T22:01:23.876Z,13.33
2019-03-06T22:03:50.448Z,12.77
2019-03-06T22:06:17.767Z,13.53
2019-03-06T22:08:44.487Z,13.50
2019-03-06T22:11:11.148Z,13.00
2019-03-06T22:13:37.822Z,12.20
2019-03-06T22:16:04.888Z,12.90
2019-03-06T22:18:31.412Z,13.20
2019-03-06T22:20:57.979Z,13.80
2019-03-06T22:23:24.497Z,12.33
2019-03-06T22:25:51.147Z,13.20
2019-03-06T22:28:17.712Z,13.00
2019-03-06T22:30:44.369Z,13.17
2019-03-06T22:33:10.889Z,12.23
2019-03-06T22:35:37.867Z,11.70
2019-03-06T22:38:06.394Z,12.57
2019-03-06T22:40:32.706Z,11.97
2019-03-06T22:42:59.358Z,13.20
2019-03-06T22:45:25.911Z,11.07
2019-03-06T22:47:52.519Z,12.70
2019-03-06T22:50:19.091Z,12.50
2019-03-06T22:52:45.999Z,11.97
2019-03-06T22:55:17.863Z,11.50
2019-03-06T22:57:44.676Z,12.30
2019-03-06T23:00:17.565Z,12.60
2019-03-06T23:02:44.740Z,11.30
2019-03-06T23:05:11.383Z,11.80
2019-03-06T23:07:38.515Z,11.67
2019-03-06T23:10:05.440Z,11.20
2019-03-06T23:12:32.071Z,11.40
2019-03-06T23:14:58.583Z,10.97
2019-03-06T23:17:26.823Z,11.97
2019-03-06T23:19:53.385Z,10.97
2019-03-06T23:22:19.928Z,11.30
2019-03-06T23:24:48.675Z,12.17
2019-03-06T23:27:14.985Z,12.93
2019-03-06T23:29:43.131Z,11.80
2019-03-06T23:32:09.672Z,12.87
2019-03-06T23:34:36.179Z,12.10
2019-03-06T23:37:02.826Z,11.93
2019-03-06T23:39:29.369Z,10.73
2019-03-06T23:41:56.199Z,10.03
2019-03-06T23:44:22.916Z,11.10
2019-03-06T23:46:49.546Z,11.20
2019-03-06T23:49:16.059Z,11.27
2019-03-06T23:51:44.496Z,11.40
2019-03-06T23:54:11.228Z,11.77
2019-03-06T23:56:37.843Z,11.57
2019-03-06T23:59:04.701Z,11.97
